Time;durP1;ratioP1;P1;durP2;ratioP2;P2;SDS_P1;SDS_P2;PMS_P1;PMS_P2;Temp;Humidity;BMP_temperature;BMP_pressure;BME280_temperature;BME280_humidity;BME280_pressure;Samples;Min_cycle;Max_cycle;Signal;HPM_P1;HPM_P2
2021/12/03 00:01:28;;;;;;;0.35;0.35;;;0.60;99.90;;;;;;5034324;28;20130;-77
2021/12/03 00:03:54;;;;;;;0.30;0.30;;;0.60;99.90;;;;;;5051013;28;20048;-76
2021/12/03 00:06:21;;;;;;;0.30;0.30;;;0.60;99.90;;;;;;5038272;28;20374;-76
2021/12/03 00:08:47;;;;;;;0.30;0.30;;;0.70;99.90;;;;;;5047992;28;20053;-76
2021/12/03 00:11:13;;;;;;;0.30;0.30;;;0.70;99.90;;;;;;5059041;28;20044;-76
2021/12/03 00:13:41;;;;;;;0.98;0.98;;;0.60;99.90;;;;;;5051831;28;20132;-76
2021/12/03 00:16:07;;;;;;;0.30;0.30;;;0.60;99.90;;;;;;5033329;28;20037;-76
2021/12/03 00:18:34;;;;;;;0.30;0.30;;;0.70;99.90;;;;;;5032022;28;20079;-76
2021/12/03 00:21:03;;;;;;;0.60;0.60;;;0.60;99.90;;;;;;5037511;28;20509;-76
2021/12/03 00:23:29;;;;;;;1.30;0.75;;;0.60;99.90;;;;;;5054864;28;20116;-76
2021/12/03 00:25:59;;;;;;;0.47;0.47;;;0.70;99.90;;;;;;5054709;28;20520;-76
2021/12/03 00:28:25;;;;;;;0.82;0.82;;;0.70;99.90;;;;;;5058301;28;20115;-76
2021/12/03 00:30:51;;;;;;;0.30;0.30;;;0.70;99.90;;;;;;5042806;28;20814;-76
2021/12/03 00:33:17;;;;;;;0.30;0.30;;;0.70;99.90;;;;;;5045131;28;20044;-76
2021/12/03 00:35:43;;;;;;;0.40;0.40;;;0.70;99.90;;;;;;5060954;28;20032;-76
2021/12/03 00:38:09;;;;;;;0.40;0.40;;;0.60;99.90;;;;;;5052879;28;20047;-76
2021/12/03 00:40:39;;;;;;;0.45;0.45;;;0.60;99.90;;;;;;5055334;28;20052;-76
2021/12/03 00:43:06;;;;;;;0.30;0.30;;;0.60;99.90;;;;;;5041980;28;20066;-76
2021/12/03 00:45:32;;;;;;;0.82;0.65;;;0.50;99.90;;;;;;5051548;28;20036;-76
2021/12/03 00:48:00;;;;;;;0.30;0.30;;;0.50;99.90;;;;;;5057430;28;20072;-76
2021/12/03 00:50:28;;;;;;;0.40;0.40;;;0.50;99.90;;;;;;5049401;28;20053;-76
2021/12/03 00:52:56;;;;;;;0.57;0.57;;;0.50;99.90;;;;;;5052395;28;20485;-76
2021/12/03 00:55:24;;;;;;;0.40;0.40;;;0.50;99.90;;;;;;5050417;28;20055;-76
2021/12/03 00:57:50;;;;;;;0.40;0.40;;;0.50;99.90;;;;;;5073797;28;20033;-76
2021/12/03 01:00:22;;;;;;;4.47;3.30;;;0.50;99.90;;;;;;5050897;28;20443;-76
2021/12/03 01:02:49;;;;;;;0.20;0.20;;;0.60;99.90;;;;;;5044245;28;20397;-76
2021/12/03 01:05:15;;;;;;;0.50;0.50;;;0.60;99.90;;;;;;5045870;28;20045;-76
2021/12/03 01:07:41;;;;;;;0.98;0.98;;;0.60;99.90;;;;;;5039486;28;20044;-76
2021/12/03 01:10:07;;;;;;;0.30;0.30;;;0.60;99.90;;;;;;5051587;28;20040;-76
2021/12/03 01:12:34;;;;;;;0.40;0.40;;;0.60;99.90;;;;;;5047296;28;20094;-77
2021/12/03 01:14:59;;;;;;;0.40;0.40;;;0.60;99.90;;;;;;5055329;28;20080;-75
2021/12/03 01:17:26;;;;;;;0.30;0.30;;;0.60;99.90;;;;;;5034013;28;20462;-76
2021/12/03 01:19:52;;;;;;;0.50;0.50;;;0.60;99.90;;;;;;5053049;28;20036;-76
2021/12/03 01:22:17;;;;;;;0.70;0.70;;;0.60;99.90;;;;;;5045929;28;20107;-75
2021/12/03 01:24:44;;;;;;;0.45;0.45;;;0.60;99.90;;;;;;5083156;28;20036;-76
2021/12/03 01:27:10;;;;;;;0.30;0.30;;;0.70;99.90;;;;;;5037003;28;20083;-76
2021/12/03 01:29:36;;;;;;;0.93;0.93;;;0.70;99.90;;;;;;5035036;28;20048;-76
2021/12/03 01:32:02;;;;;;;0.65;0.65;;;0.70;99.90;;;;;;5068128;28;20147;-76
2021/12/03 01:34:27;;;;;;;1.27;1.05;;;0.70;99.90;;;;;;5041667;28;20037;-76
2021/12/03 01:36:53;;;;;;;0.30;0.30;;;0.70;99.90;;;;;;5083050;28;20493;-76
2021/12/03 01:39:19;;;;;;;0.20;0.20;;;0.60;99.90;;;;;;5048745;28;20067;-76
2021/12/03 01:41:45;;;;;;;0.65;0.65;;;0.60;99.90;;;;;;5043779;28;20045;-76
2021/12/03 01:44:11;;;;;;;0.98;0.63;;;0.60;99.90;;;;;;5067822;28;20033;-76
2021/12/03 01:46:37;;;;;;;15.70;0.80;;;0.60;99.90;;;;;;5035213;28;20036;-78
2021/12/03 01:49:05;;;;;;;0.30;0.30;;;0.70;99.90;;;;;;5033240;28;20222;-76
2021/12/03 01:51:31;;;;;;;5.10;0.80;;;0.70;99.90;;;;;;5053752;28;20405;-76
2021/12/03 01:53:56;;;;;;;0.40;0.40;;;0.70;99.90;;;;;;5046532;28;20040;-76
2021/12/03 01:56:23;;;;;;;0.50;0.50;;;0.80;99.90;;;;;;5036182;28;20047;-76
2021/12/03 01:58:50;;;;;;;3.10;1.10;;;0.80;99.90;;;;;;5048802;28;20045;-76
2021/12/03 02:01:21;;;;;;;0.40;0.40;;;0.80;99.90;;;;;;5085690;28;20494;-76
2021/12/03 02:03:52;;;;;;;0.22;0.22;;;0.90;99.90;;;;;;5044374;28;20044;-76
2021/12/03 02:06:20;;;;;;;0.50;0.50;;;0.90;99.90;;;;;;5076331;28;20037;-76
2021/12/03 02:08:46;;;;;;;0.30;0.30;;;0.90;99.90;;;;;;5040667;28;20052;-76
2021/12/03 02:11:14;;;;;;;0.50;0.50;;;0.90;99.90;;;;;;5053941;28;20056;-76
2021/12/03 02:13:41;;;;;;;0.30;0.30;;;0.90;99.90;;;;;;5033067;28;20496;-76
2021/12/03 02:16:08;;;;;;;3.65;1.00;;;1.00;99.90;;;;;;5030747;28;20079;-76
2021/12/03 02:18:34;;;;;;;0.80;0.77;;;1.00;99.90;;;;;;5026830;28;20029;-76
2021/12/03 02:21:02;;;;;;;0.30;0.30;;;1.00;99.90;;;;;;5023028;28;20067;-76
2021/12/03 02:23:28;;;;;;;2.45;1.10;;;1.00;99.90;;;;;;5035062;28;20079;-76
2021/12/03 02:25:56;;;;;;;0.25;0.25;;;1.00;99.90;;;;;;5047930;28;20128;-76
2021/12/03 02:28:26;;;;;;;0.50;0.50;;;1.10;99.90;;;;;;5058417;28;20474;-76
2021/12/03 02:30:54;;;;;;;0.90;0.90;;;1.10;99.90;;;;;;5050980;28;20127;-76
2021/12/03 02:33:20;;;;;;;0.52;0.52;;;1.10;99.90;;;;;;5061891;28;20040;-76
2021/12/03 02:35:47;;;;;;;0.93;0.93;;;1.20;99.90;;;;;;5036445;28;20512;-76
2021/12/03 02:38:17;;;;;;;0.30;0.30;;;1.20;99.90;;;;;;5028898;28;20041;-76
2021/12/03 02:40:43;;;;;;;0.50;0.50;;;1.20;99.90;;;;;;5036647;28;20037;-75
2021/12/03 02:43:09;;;;;;;0.40;0.40;;;1.20;99.90;;;;;;5053053;28;20064;-76
2021/12/03 02:45:35;;;;;;;0.57;0.57;;;1.20;99.90;;;;;;5050256;28;20040;-75
2021/12/03 02:48:04;;;;;;;0.30;0.30;;;1.30;99.90;;;;;;5038175;28;20040;-75
2021/12/03 02:50:30;;;;;;;0.38;0.38;;;1.20;99.90;;;;;;5084229;28;20068;-76
2021/12/03 02:52:55;;;;;;;3.13;0.88;;;1.30;99.90;;;;;;5054083;28;20420;-76
2021/12/03 02:55:23;;;;;;;4.93;1.60;;;1.30;99.90;;;;;;5029958;28;20037;-76
2021/12/03 02:57:49;;;;;;;0.45;0.45;;;1.30;99.90;;;;;;5037494;28;20419;-75
2021/12/03 03:00:17;;;;;;;0.68;0.68;;;1.30;99.90;;;;;;5034064;28;20045;-76
2021/12/03 03:02:44;;;;;;;1.27;0.85;;;1.30;99.90;;;;;;5033349;28;20475;-75
2021/12/03 03:05:11;;;;;;;1.23;1.20;;;1.40;99.90;;;;;;5045228;28;20518;-76
2021/12/03 03:07:37;;;;;;;1.30;1.20;;;1.40;99.90;;;;;;5035331;28;20032;-76
2021/12/03 03:10:08;;;;;;;2.22;1.55;;;1.40;99.90;;;;;;5054884;28;20493;-75
2021/12/03 03:12:34;;;;;;;3.78;2.70;;;1.50;99.90;;;;;;5041857;28;20049;-76
2021/12/03 03:15:00;;;;;;;1.70;1.60;;;1.50;99.90;;;;;;5048639;28;20120;-75
2021/12/03 03:17:28;;;;;;;1.83;1.73;;;1.50;99.90;;;;;;5035103;28;20040;-75
2021/12/03 03:19:56;;;;;;;5.10;3.22;;;1.50;99.90;;;;;;5036847;28;20045;-76
2021/12/03 03:22:22;;;;;;;0.88;0.85;;;1.50;99.90;;;;;;5032021;28;20080;-76
2021/12/03 03:24:48;;;;;;;1.05;0.95;;;1.50;99.90;;;;;;5031949;28;20118;-75
2021/12/03 03:27:14;;;;;;;2.72;2.38;;;1.50;99.90;;;;;;5046906;28;20463;-76
2021/12/03 03:29:42;;;;;;;5.43;3.38;;;1.50;99.90;;;;;;5024484;28;20041;-76
2021/12/03 03:32:09;;;;;;;2.50;2.30;;;1.50;99.90;;;;;;5029483;28;20057;-75
2021/12/03 03:34:35;;;;;;;5.88;4.20;;;1.50;99.90;;;;;;5047832;28;20103;-76
2021/12/03 03:37:01;;;;;;;5.00;2.25;;;1.50;99.90;;;;;;5047267;28;20408;-75
2021/12/03 03:39:27;;;;;;;2.45;1.80;;;1.50;99.90;;;;;;5039869;28;20037;-75
2021/12/03 03:41:53;;;;;;;2.72;1.50;;;1.60;99.90;;;;;;5048547;28;20532;-76
2021/12/03 03:44:19;;;;;;;4.15;2.78;;;1.60;99.90;;;;;;5031430;28;20198;-76
2021/12/03 03:46:45;;;;;;;1.92;1.83;;;1.60;99.90;;;;;;5058989;28;20107;-75
2021/12/03 03:49:11;;;;;;;6.20;4.32;;;1.60;99.90;;;;;;5039472;28;20076;-75
2021/12/03 03:51:37;;;;;;;18.95;7.85;;;1.60;99.90;;;;;;5031895;28;20076;-75
2021/12/03 03:54:03;;;;;;;6.20;4.68;;;1.60;99.90;;;;;;5048714;28;20046;-75
2021/12/03 03:56:31;;;;;;;5.85;4.03;;;1.60;99.90;;;;;;5042307;28;20215;-76
2021/12/03 03:58:57;;;;;;;28.80;2.17;;;1.60;99.90;;;;;;5048450;28;20041;-76
2021/12/03 04:01:23;;;;;;;5.22;3.55;;;1.60;99.90;;;;;;5031618;28;20064;-75
2021/12/03 04:03:49;;;;;;;5.53;4.43;;;1.70;99.90;;;;;;5042633;28;20158;-76
2021/12/03 04:06:17;;;;;;;7.97;5.60;;;1.60;99.90;;;;;;5047037;28;20064;-76
2021/12/03 04:08:45;;;;;;;2.58;2.17;;;1.70;99.90;;;;;;5082064;28;20537;-76
2021/12/03 04:11:12;;;;;;;9.98;5.90;;;1.70;99.90;;;;;;5049561;28;20071;-75
2021/12/03 04:13:38;;;;;;;5.03;2.95;;;1.60;99.90;;;;;;5032294;28;20036;-76
2021/12/03 04:16:04;;;;;;;3.08;2.78;;;1.70;99.90;;;;;;5043880;28;20037;-75
2021/12/03 04:18:30;;;;;;;5.07;3.50;;;1.70;99.90;;;;;;5033488;28;20493;-76
2021/12/03 04:20:56;;;;;;;3.85;3.35;;;1.70;99.90;;;;;;5035161;28;20048;-76
2021/12/03 04:23:22;;;;;;;3.38;3.00;;;1.60;99.90;;;;;;5050653;28;20037;-75
2021/12/03 04:25:49;;;;;;;1.85;1.70;;;1.60;99.90;;;;;;5047840;28;20045;-75
2021/12/03 04:28:15;;;;;;;7.28;4.18;;;1.60;99.90;;;;;;5030115;28;20140;-75
2021/12/03 04:30:42;;;;;;;2.95;1.60;;;1.60;99.90;;;;;;5047898;28;20584;-75
2021/12/03 04:33:08;;;;;;;5.82;4.32;;;1.60;99.90;;;;;;5039481;28;20400;-75
2021/12/03 04:35:34;;;;;;;5.40;4.38;;;1.60;99.90;;;;;;5037762;28;20053;-75
2021/12/03 04:38:00;;;;;;;7.07;4.85;;;1.60;99.90;;;;;;5050196;28;20040;-75
2021/12/03 04:40:28;;;;;;;4.93;3.28;;;1.50;99.90;;;;;;5036583;28;20496;-75
2021/12/03 04:42:54;;;;;;;0.50;0.50;;;1.50;99.90;;;;;;5047956;28;20040;-75
2021/12/03 04:45:23;;;;;;;3.38;2.10;;;1.50;99.90;;;;;;5047350;28;20052;-76
2021/12/03 04:47:50;;;;;;;6.75;3.95;;;1.50;99.90;;;;;;5084925;28;20040;-75
2021/12/03 04:50:17;;;;;;;3.90;3.33;;;1.50;99.90;;;;;;5035116;28;20045;-76
2021/12/03 04:52:43;;;;;;;4.88;3.58;;;1.50;99.90;;;;;;5053710;28;20046;-76
2021/12/03 04:55:10;;;;;;;4.28;3.45;;;1.50;99.90;;;;;;5035140;28;20045;-76
2021/12/03 04:57:37;;;;;;;1.15;0.90;;;1.40;99.90;;;;;;5033916;28;20075;-76
2021/12/03 05:00:06;;;;;;;3.92;2.75;;;1.40;99.90;;;;;;5049731;28;20040;-75
2021/12/03 05:02:32;;;;;;;1.10;1.10;;;1.40;99.90;;;;;;5047945;28;20043;-75
2021/12/03 05:05:02;;;;;;;3.13;2.60;;;1.40;99.90;;;;;;5053638;28;20447;-75
2021/12/03 05:10:06;;;;;;;7.68;5.28;;;1.40;99.90;;;;;;5045625;28;20404;-75
2021/12/03 05:12:32;;;;;;;1.77;1.67;;;1.40;99.90;;;;;;5041698;28;20040;-75
2021/12/03 05:14:59;;;;;;;8.23;5.72;;;1.40;99.90;;;;;;5052703;28;20044;-75
2021/12/03 05:17:24;;;;;;;1.48;1.38;;;1.50;99.90;;;;;;5029965;28;20037;-75
2021/12/03 05:19:51;;;;;;;2.13;1.92;;;1.50;99.90;;;;;;5045694;28;20041;-75
2021/12/03 05:22:17;;;;;;;5.50;4.13;;;1.50;99.90;;;;;;5049784;28;20040;-75
2021/12/03 05:24:45;;;;;;;9.20;6.25;;;1.50;99.90;;;;;;5033055;28;20755;-75
2021/12/03 05:27:16;;;;;;;13.85;7.13;;;1.60;99.90;;;;;;5054254;28;20045;-75
2021/12/03 05:29:43;;;;;;;10.25;6.68;;;1.60;99.90;;;;;;5043495;28;20045;-75
2021/12/03 05:32:09;;;;;;;12.23;5.18;;;1.60;99.90;;;;;;5039196;28;20527;-75
2021/12/03 05:34:36;;;;;;;4.93;4.38;;;1.60;99.90;;;;;;5034448;28;20120;-75
2021/12/03 05:37:02;;;;;;;8.38;4.47;;;1.60;99.90;;;;;;5032703;28;20041;-75
2021/12/03 05:39:27;;;;;;;10.88;7.55;;;1.60;99.90;;;;;;5078506;28;20090;-75
2021/12/03 05:41:53;;;;;;;8.60;6.45;;;1.60;99.90;;;;;;5035147;28;20045;-74
2021/12/03 05:44:19;;;;;;;1.63;1.50;;;1.60;99.90;;;;;;5050693;28;20104;-75
2021/12/03 05:46:45;;;;;;;17.20;7.38;;;1.60;99.90;;;;;;5060413;28;20045;-75
2021/12/03 05:49:11;;;;;;;2.80;2.55;;;1.60;99.90;;;;;;5051276;28;20040;-75
2021/12/03 05:51:37;;;;;;;7.75;5.00;;;1.60;99.90;;;;;;5051284;28;20044;-75
2021/12/03 05:54:03;;;;;;;7.72;4.53;;;1.60;99.90;;;;;;5073673;28;20041;-75
2021/12/03 05:56:30;;;;;;;2.55;2.35;;;1.60;99.90;;;;;;5050782;28;20037;-75
2021/12/03 05:58:55;;;;;;;6.78;5.47;;;1.60;99.90;;;;;;5039478;28;20037;-75
2021/12/03 06:01:21;;;;;;;2.50;2.25;;;1.60;99.90;;;;;;5049764;28;20455;-75
2021/12/03 06:03:47;;;;;;;10.88;5.00;;;1.60;99.90;;;;;;5049899;28;20120;-75
2021/12/03 06:06:14;;;;;;;2.40;2.20;;;1.60;99.90;;;;;;5033174;28;20043;-76
2021/12/03 06:08:42;;;;;;;3.75;3.40;;;1.60;99.90;;;;;;5037641;28;20036;-76
2021/12/03 06:11:09;;;;;;;4.35;3.50;;;1.70;99.90;;;;;;5038730;28;20130;-76
2021/12/03 06:13:39;;;;;;;3.17;2.35;;;1.70;99.90;;;;;;5071169;28;20037;-76
2021/12/03 06:16:07;;;;;;;24.48;8.30;;;1.70;99.90;;;;;;5033613;28;20093;-76
2021/12/03 06:18:33;;;;;;;5.88;3.67;;;1.70;99.90;;;;;;5031152;28;20060;-75
2021/12/03 06:20:59;;;;;;;8.40;3.35;;;1.70;99.90;;;;;;5034183;28;20041;-76
2021/12/03 06:23:25;;;;;;;5.57;4.00;;;1.70;99.90;;;;;;5032558;28;20037;-75
2021/12/03 06:25:51;;;;;;;8.85;5.97;;;1.80;99.90;;;;;;5050350;28;20063;-76
2021/12/03 06:28:16;;;;;;;9.20;4.70;;;1.80;99.90;;;;;;5051401;28;20512;-75
2021/12/03 06:30:42;;;;;;;6.30;4.47;;;1.80;99.90;;;;;;5059240;28;20099;-76
2021/12/03 06:33:08;;;;;;;4.88;4.07;;;1.80;99.90;;;;;;5085871;28;20044;-76
2021/12/03 06:35:34;;;;;;;6.07;4.57;;;1.90;99.90;;;;;;5068280;28;20052;-76
2021/12/03 06:38:00;;;;;;;1.77;1.67;;;1.90;99.90;;;;;;5032881;28;20044;-76
2021/12/03 06:40:27;;;;;;;8.13;5.28;;;2.00;99.90;;;;;;5042169;28;20041;-76
2021/12/03 06:42:53;;;;;;;1.13;1.10;;;2.00;99.90;;;;;;5051995;28;20432;-76
2021/12/03 06:45:20;;;;;;;5.95;4.38;;;2.00;99.90;;;;;;5044931;28;20098;-76
2021/12/03 06:47:45;;;;;;;4.75;3.72;;;2.10;99.90;;;;;;5055960;28;20041;-76
2021/12/03 06:50:18;;;;;;;11.45;5.93;;;2.20;99.90;;;;;;5048752;28;20043;-76
2021/12/03 06:52:51;;;;;;;10.93;4.63;;;2.20;99.90;;;;;;5034640;28;20044;-77
2021/12/03 06:55:17;;;;;;;12.95;7.32;;;2.20;99.90;;;;;;5063595;28;20102;-76
2021/12/03 06:57:44;;;;;;;3.90;3.28;;;2.30;99.90;;;;;;5075683;28;20485;-76
2021/12/03 07:00:12;;;;;;;54.58;3.13;;;2.30;99.90;;;;;;5047615;28;20045;-77
2021/12/03 07:02:38;;;;;;;6.50;3.85;;;2.30;99.90;;;;;;5035997;28;20388;-76
2021/12/03 07:05:05;;;;;;;0.82;0.82;;;2.30;99.90;;;;;;5054290;28;20041;-76
2021/12/03 07:07:31;;;;;;;4.15;3.30;;;2.40;99.90;;;;;;5033106;28;20428;-76
2021/12/03 07:09:57;;;;;;;2.50;1.95;;;2.40;99.90;;;;;;5033280;28;20041;-77
2021/12/03 07:12:23;;;;;;;7.40;3.25;;;2.40;99.90;;;;;;5047301;28;20463;-76
2021/12/03 07:14:48;;;;;;;6.18;3.72;;;2.50;99.90;;;;;;5052534;28;20044;-76
2021/12/03 07:17:14;;;;;;;6.10;4.30;;;2.50;99.90;;;;;;5034031;28;20037;-76
2021/12/03 07:19:40;;;;;;;4.10;2.35;;;2.50;99.90;;;;;;5063876;28;20596;-77
2021/12/03 07:22:06;;;;;;;4.60;2.75;;;2.50;99.90;;;;;;5045933;28;20040;-76
2021/12/03 07:24:32;;;;;;;10.52;5.40;;;2.50;99.90;;;;;;5055870;28;20040;-77
2021/12/03 07:26:57;;;;;;;9.73;3.20;;;2.50;99.90;;;;;;5064132;28;20044;-77
2021/12/03 07:29:23;;;;;;;21.33;2.45;;;2.50;99.90;;;;;;5037520;28;20052;-77
2021/12/03 07:31:50;;;;;;;8.77;3.60;;;2.60;99.90;;;;;;5044404;28;20122;-77
2021/12/03 07:34:16;;;;;;;2.80;1.85;;;2.60;99.90;;;;;;5038887;28;20444;-77
2021/12/03 07:36:42;;;;;;;6.30;3.78;;;2.60;99.90;;;;;;5051443;28;20367;-76
2021/12/03 07:39:07;;;;;;;4.57;2.85;;;2.60;99.90;;;;;;5053258;28;20045;-76
2021/12/03 07:41:36;;;;;;;4.03;2.45;;;2.70;99.90;;;;;;5031303;28;20037;-76
2021/12/03 07:44:02;;;;;;;2.60;1.67;;;2.70;99.90;;;;;;5053583;28;20041;-76
2021/12/03 07:46:28;;;;;;;2.38;1.45;;;2.70;99.90;;;;;;5034066;28;20094;-77
2021/12/03 07:48:54;;;;;;;2.78;1.90;;;2.70;99.90;;;;;;5048956;28;20041;-76
2021/12/03 07:51:20;;;;;;;4.55;1.88;;;2.70;99.90;;;;;;5032145;28;20109;-76
2021/12/03 07:53:46;;;;;;;0.80;0.80;;;2.70;99.90;;;;;;5051401;28;20382;-76
2021/12/03 07:56:11;;;;;;;4.85;2.38;;;2.80;99.90;;;;;;5035060;28;20096;-76
2021/12/03 07:58:37;;;;;;;2.20;1.85;;;2.80;99.90;;;;;;5031943;28;20124;-76
2021/12/03 08:01:03;;;;;;;4.47;2.38;;;2.80;99.90;;;;;;5055681;28;20121;-76
2021/12/03 08:03:29;;;;;;;0.98;0.98;;;2.90;99.90;;;;;;5052894;28;20033;-76
2021/12/03 08:05:55;;;;;;;13.05;3.25;;;2.90;99.90;;;;;;5063568;28;20044;-77
2021/12/03 08:08:26;;;;;;;2.72;2.05;;;2.90;99.90;;;;;;5047993;28;20045;-76
2021/12/03 08:10:52;;;;;;;1.98;1.75;;;2.90;99.90;;;;;;5030933;28;20049;-76
2021/12/03 08:13:19;;;;;;;4.35;2.00;;;2.90;99.90;;;;;;5049441;28;20409;-76
2021/12/03 08:15:44;;;;;;;2.35;2.15;;;3.00;99.90;;;;;;5047764;28;20071;-76
2021/12/03 08:18:10;;;;;;;3.42;1.42;;;3.00;99.90;;;;;;5067190;28;20501;-76
2021/12/03 08:20:36;;;;;;;3.85;1.90;;;3.10;99.90;;;;;;5040453;28;20034;-76
2021/12/03 08:23:02;;;;;;;2.17;1.88;;;3.10;99.90;;;;;;5040311;28;20401;-76
2021/12/03 08:25:29;;;;;;;4.05;1.80;;;3.10;99.90;;;;;;5054313;28;20041;-76
2021/12/03 08:27:55;;;;;;;2.15;1.90;;;3.20;99.90;;;;;;5051574;28;20056;-76
2021/12/03 08:30:21;;;;;;;5.85;2.10;;;3.20;99.90;;;;;;5041464;28;20056;-77
2021/12/03 08:32:48;;;;;;;1.48;1.38;;;3.20;99.90;;;;;;5035610;28;20045;-76
2021/12/03 08:35:14;;;;;;;6.32;3.60;;;3.20;99.90;;;;;;5054807;28;20059;-77
2021/12/03 08:37:45;;;;;;;4.80;2.83;;;3.20;99.90;;;;;;5044817;28;20516;-76
2021/12/03 08:40:11;;;;;;;12.05;3.47;;;3.30;99.90;;;;;;5062896;28;20128;-76
2021/12/03 08:42:37;;;;;;;1.13;1.05;;;3.30;99.90;;;;;;5033083;28;20033;-76
2021/12/03 08:45:04;;;;;;;3.80;2.75;;;3.30;99.90;;;;;;5050917;28;20095;-76
2021/12/03 08:47:31;;;;;;;4.70;1.38;;;3.40;99.90;;;;;;5049081;28;20107;-76
2021/12/03 08:49:57;;;;;;;1.23;1.13;;;3.40;99.90;;;;;;5053256;28;20033;-76
2021/12/03 08:52:35;;;;;;;7.90;2.28;;;3.40;99.90;;;;;;5053170;28;20374;-76
2021/12/03 08:55:00;;;;;;;5.40;3.33;;;3.40;99.90;;;;;;5027051;28;20045;-76
2021/12/03 08:57:31;;;;;;;6.72;4.47;;;3.40;99.90;;;;;;5033713;28;20041;-77
2021/12/03 09:00:02;;;;;;;8.98;2.88;;;3.50;99.90;;;;;;5050421;28;20388;-77
2021/12/03 09:02:28;;;;;;;5.60;1.98;;;3.50;99.90;;;;;;5038123;28;20126;-77
2021/12/03 09:04:54;;;;;;;15.35;3.70;;;3.50;99.90;;;;;;5044350;28;20041;-76
2021/12/03 09:07:20;;;;;;;5.18;3.40;;;3.60;99.90;;;;;;5050432;28;20098;-77
2021/12/03 09:09:45;;;;;;;6.10;3.22;;;3.60;99.90;;;;;;5051912;28;20484;-77
2021/12/03 09:12:12;;;;;;;6.97;4.28;;;3.60;99.90;;;;;;5053536;28;20469;-77
2021/12/03 09:17:20;;;;;;;4.22;2.25;;;3.70;99.90;;;;;;5049089;28;20077;-76
2021/12/03 09:22:31;;;;;;;10.98;4.93;;;3.70;99.90;;;;;;5085097;28;20123;-76
2021/12/03 09:24:57;;;;;;;5.22;3.40;;;3.80;99.90;;;;;;5087449;28;20041;-77
2021/12/03 09:27:23;;;;;;;8.90;6.13;;;3.80;99.90;;;;;;5036426;28;20071;-76
2021/12/03 09:29:52;;;;;;;4.28;2.40;;;3.80;99.90;;;;;;5065648;28;20619;-76
2021/12/03 09:32:22;;;;;;;2.63;2.15;;;3.90;99.90;;;;;;5052745;28;20067;-76
2021/12/03 09:34:49;;;;;;;5.47;3.13;;;3.90;99.90;;;;;;5067886;28;20044;-77
2021/12/03 09:37:15;;;;;;;7.13;2.78;;;4.00;99.90;;;;;;5046440;28;20443;-76
2021/12/03 09:39:43;;;;;;;4.85;2.78;;;4.00;99.90;;;;;;5045898;28;20041;-76
2021/12/03 09:42:09;;;;;;;7.90;3.85;;;4.00;99.90;;;;;;5045143;28;20490;-76
2021/12/03 09:44:58;;;;;;;5.63;2.85;;;4.00;99.90;;;;;;5032925;28;20073;-77
2021/12/03 09:47:24;;;;;;;1.75;1.48;;;4.00;99.90;;;;;;5014607;28;20034;-76
2021/12/03 09:50:01;;;;;;;2.85;2.25;;;4.10;99.90;;;;;;5028114;28;20037;-76
2021/12/03 09:52:32;;;;;;;3.28;2.53;;;4.10;99.90;;;;;;5027981;28;20103;-76
2021/12/03 09:55:01;;;;;;;8.10;3.40;;;4.20;99.90;;;;;;5036699;28;20127;-76
2021/12/03 10:15:59;;;;;;;4.07;1.95;;;4.30;99.90;;;;;;5048291;28;20103;-76
2021/12/03 10:19:00;;;;;;;4.22;3.10;;;4.30;99.90;;;;;;5050178;28;20048;-77
2021/12/03 10:24:49;;;;;;;9.05;3.92;;;4.30;99.90;;;;;;5085045;28;20129;-76
2021/12/03 10:36:26;;;;;;;2.28;1.73;;;4.30;99.90;;;;;;5037312;28;20069;-77
2021/12/03 10:59:56;;;;;;;3.38;2.03;;;4.30;99.90;;;;;;5049581;28;20102;-76
2021/12/03 12:29:17;;;;;;;1999.90;999.90;;;4.00;99.90;;;;;;5047559;28;20045;-77
2021/12/03 12:32:45;;;;;;;1999.90;999.90;;;4.00;99.90;;;;;;5078835;28;20044;-77
2021/12/03 13:02:02;;;;;;;1999.90;999.90;;;3.90;99.90;;;;;;5048992;28;20501;-77
2021/12/03 13:31:57;;;;;;;1999.90;999.90;;;4.10;99.90;;;;;;5054329;28;20059;-77
2021/12/03 14:00:33;;;;;;;1999.90;999.90;;;4.30;99.90;;;;;;5055931;28;20144;-77
2021/12/03 14:30:16;;;;;;;1999.90;999.90;;;4.50;99.90;;;;;;5057663;28;20044;-78
2021/12/03 14:59:59;;;;;;;1999.90;999.90;;;4.70;99.90;;;;;;5053182;28;20147;-77
2021/12/03 15:02:48;;;;;;;1999.90;999.90;;;4.70;99.90;;;;;;5066942;28;20025;-78
2021/12/03 15:05:28;;;;;;;1999.90;999.90;;;4.70;99.90;;;;;;5088006;28;20425;-77
2021/12/03 15:07:54;;;;;;;1999.90;999.90;;;4.70;99.90;;;;;;5075054;28;20048;-77
2021/12/03 15:10:36;;;;;;;1999.90;999.90;;;4.70;99.90;;;;;;5039891;28;20047;-78
2021/12/03 15:17:25;;;;;;;1999.90;999.90;;;4.70;99.90;;;;;;5051909;28;20405;-77
2021/12/03 15:23:33;;;;;;;1999.90;999.90;;;4.70;99.90;;;;;;5073574;28;20043;-77
2021/12/03 15:26:15;;;;;;;1999.90;999.90;;;4.60;99.90;;;;;;5049648;28;20045;-78
2021/12/03 15:29:11;;;;;;;1999.90;999.90;;;4.60;99.90;;;;;;5051040;28;20461;-77
2021/12/03 15:31:46;;;;;;;1999.90;999.90;;;4.60;99.90;;;;;;5048658;28;20053;-77
2021/12/03 15:37:44;;;;;;;1999.90;999.90;;;4.60;99.90;;;;;;5052202;28;20045;-77
2021/12/03 16:06:37;;;;;;;6.07;3.72;;;4.50;99.90;;;;;;5033121;28;20044;-77
2021/12/03 16:09:59;;;;;;;11.90;4.97;;;4.40;99.90;;;;;;5031653;28;20052;-77
2021/12/03 16:20:14;;;;;;;7.32;4.32;;;4.50;99.90;;;;;;5029193;28;20080;-77
2021/12/03 16:25:23;;;;;;;4.70;3.55;;;4.50;99.90;;;;;;5041776;28;20043;-77
2021/12/03 16:52:07;;;;;;;9.70;7.13;;;4.50;99.90;;;;;;5075510;28;20465;-77
2021/12/03 16:54:46;;;;;;;10.82;8.85;;;4.50;99.90;;;;;;5027026;28;20783;-78
2021/12/03 16:57:13;;;;;;;5.10;3.42;;;4.50;99.90;;;;;;5046001;28;20140;-77
2021/12/03 16:59:41;;;;;;;9.90;8.23;;;4.50;99.90;;;;;;5043148;28;20041;-77
2021/12/03 17:02:16;;;;;;;5.65;4.80;;;4.50;99.90;;;;;;5048922;28;20052;-77
2021/12/03 17:16:02;;;;;;;9.27;7.22;;;4.50;99.90;;;;;;5070764;28;20045;-77
2021/12/03 17:31:59;;;;;;;7.85;6.47;;;4.50;99.90;;;;;;5048448;28;20056;-77
2021/12/03 18:01:03;;;;;;;14.93;11.55;;;4.60;99.90;;;;;;5043889;28;20048;-77
2021/12/03 18:15:12;;;;;;;4.60;3.97;;;4.60;99.90;;;;;;5044874;28;20057;-77
2021/12/03 18:55:08;;;;;;;8.38;5.20;;;4.70;99.90;;;;;;5073682;28;20044;-78
2021/12/03 18:57:40;;;;;;;16.10;10.27;;;4.70;99.90;;;;;;5044130;28;20063;-77
2021/12/03 19:00:09;;;;;;;7.60;4.47;;;4.80;99.90;;;;;;5030008;28;20379;-78
2021/12/03 19:02:38;;;;;;;11.25;7.70;;;4.70;99.90;;;;;;5078934;28;20078;-77
2021/12/03 19:05:13;;;;;;;9.93;5.93;;;4.80;99.90;;;;;;5047858;28;20473;-78
2021/12/03 19:10:29;;;;;;;3.42;3.10;;;4.80;99.90;;;;;;5038013;28;20044;-78
2021/12/03 19:12:59;;;;;;;8.45;6.15;;;4.70;99.90;;;;;;5044611;28;20077;-78
2021/12/03 19:15:26;;;;;;;2.63;2.42;;;4.80;99.90;;;;;;5041980;28;20051;-78
2021/12/03 19:17:59;;;;;;;14.73;9.00;;;4.80;99.90;;;;;;5048954;28;20051;-78
2021/12/03 19:20:28;;;;;;;13.30;8.15;;;4.80;99.90;;;;;;5040425;28;21193;-77
2021/12/03 19:22:54;;;;;;;5.35;3.45;;;4.80;99.90;;;;;;5043493;28;20033;-77
2021/12/03 19:25:20;;;;;;;14.68;7.43;;;4.80;99.90;;;;;;5044273;28;20500;-78
2021/12/03 19:27:45;;;;;;;14.15;9.90;;;4.80;99.90;;;;;;5050996;28;20076;-78
2021/12/03 19:30:12;;;;;;;15.82;8.13;;;4.80;99.90;;;;;;5023882;28;20103;-77
2021/12/03 19:32:38;;;;;;;15.30;11.10;;;4.80;99.90;;;;;;5028927;28;20491;-77
2021/12/03 19:35:05;;;;;;;10.93;6.55;;;4.80;99.90;;;;;;5032947;28;20060;-78
2021/12/03 19:37:31;;;;;;;7.85;5.53;;;4.80;99.90;;;;;;5077956;28;20084;-78
2021/12/03 19:40:01;;;;;;;21.20;12.55;;;4.80;99.90;;;;;;5031778;28;20069;-78
2021/12/03 19:42:33;;;;;;;13.88;8.63;;;4.80;99.90;;;;;;5028626;28;20126;-77
2021/12/03 19:45:04;;;;;;;11.40;5.83;;;4.80;99.90;;;;;;5029318;28;20627;-78
2021/12/03 19:47:45;;;;;;;15.25;9.88;;;4.80;99.90;;;;;;5043216;28;20071;-78
2021/12/03 19:52:42;;;;;;;15.73;9.93;;;4.80;99.90;;;;;;5035830;28;20369;-78
2021/12/03 19:55:12;;;;;;;8.75;5.60;;;4.80;99.90;;;;;;5041345;28;20045;-78
2021/12/03 19:57:37;;;;;;;10.68;7.28;;;4.80;99.90;;;;;;5033490;28;20045;-78
2021/12/03 20:00:05;;;;;;;11.38;7.13;;;4.80;99.90;;;;;;5042755;28;20510;-78
2021/12/03 20:02:31;;;;;;;10.77;7.63;;;4.80;99.90;;;;;;5023321;28;20037;-78
2021/12/03 20:04:58;;;;;;;10.52;7.47;;;4.80;99.90;;;;;;5027710;28;20139;-78
2021/12/03 20:07:24;;;;;;;35.17;19.02;;;4.80;99.90;;;;;;5068289;28;20049;-78
2021/12/03 20:09:59;;;;;;;1.15;1.02;;;4.80;99.90;;;;;;5043459;28;20397;-77
2021/12/03 20:12:26;;;;;;;16.55;10.23;;;4.80;99.90;;;;;;5038763;28;20040;-77
2021/12/03 20:14:52;;;;;;;17.80;11.10;;;4.80;99.90;;;;;;5032605;28;20040;-78
2021/12/03 20:20:13;;;;;;;16.40;8.57;;;4.90;99.90;;;;;;5033368;28;20080;-77
2021/12/03 20:22:48;;;;;;;23.13;13.93;;;4.90;99.90;;;;;;5024616;28;20047;-78
2021/12/03 20:25:38;;;;;;;14.65;9.52;;;4.90;99.90;;;;;;5037071;28;20123;-78
2021/12/03 20:28:11;;;;;;;17.73;8.57;;;4.90;99.90;;;;;;5040226;28;20046;-78
2021/12/03 20:38:17;;;;;;;27.65;15.40;;;4.90;99.90;;;;;;5036628;28;20171;-77
2021/12/03 20:40:44;;;;;;;14.13;8.68;;;5.00;99.90;;;;;;5038860;28;20048;-78
2021/12/03 20:45:56;;;;;;;10.38;6.60;;;4.90;99.90;;;;;;5038533;28;20091;-78
2021/12/03 20:48:43;;;;;;;19.25;10.40;;;5.00;99.90;;;;;;5041378;28;20120;-78
2021/12/03 20:53:46;;;;;;;5.35;4.45;;;5.00;99.90;;;;;;5047539;28;20036;-78